createdAt,value
2019-05-13T00:00:34.089Z,4.22
2019-05-13T00:03:03.785Z,3.90
2019-05-13T00:05:33.929Z,5.05
2019-05-13T00:08:03.541Z,3.70
2019-05-13T00:10:34.708Z,3.67
2019-05-13T00:13:04.333Z,3.98
2019-05-13T00:15:34.279Z,4.22
2019-05-13T00:18:03.831Z,4.78
2019-05-13T00:20:33.733Z,4.55
2019-05-13T00:23:03.922Z,5.03
2019-05-13T00:25:33.914Z,6.55
2019-05-13T00:28:04.051Z,6.83
2019-05-13T00:30:34.176Z,6.22
2019-05-13T00:33:03.880Z,5.00
2019-05-13T00:35:33.817Z,4.33
2019-05-13T00:38:03.817Z,3.50
2019-05-13T00:40:34.025Z,4.87
2019-05-13T00:43:03.860Z,4.05
2019-05-13T00:45:34.041Z,4.30
2019-05-13T00:48:04.494Z,3.92
2019-05-13T00:50:34.042Z,4.25
2019-05-13T00:53:04.257Z,4.22
2019-05-13T00:55:34.368Z,4.78
2019-05-13T00:58:04.835Z,4.10
2019-05-13T01:00:34.168Z,4.25
2019-05-13T01:03:03.977Z,4.78
2019-05-13T01:05:33.938Z,5.20
2019-05-13T01:08:04.346Z,6.75
2019-05-13T01:10:34.654Z,5.30
2019-05-13T01:13:04.878Z,4.30
2019-05-13T01:15:34.475Z,3.60
2019-05-13T01:18:04.206Z,4.42
2019-05-13T01:20:34.475Z,4.15
2019-05-13T01:23:03.971Z,3.77
2019-05-13T01:25:34.213Z,4.15
2019-05-13T01:28:04.476Z,4.67
2019-05-13T01:30:34.463Z,5.80
2019-05-13T01:33:04.474Z,5.42
2019-05-13T01:35:34.195Z,5.22
2019-05-13T01:38:04.560Z,5.50
2019-05-13T01:40:34.897Z,4.65
2019-05-13T01:43:04.008Z,4.08
2019-05-13T01:45:33.890Z,4.97
2019-05-13T01:48:07.382Z,4.83
2019-05-13T01:50:34.038Z,5.70
2019-05-13T01:53:04.261Z,4.90
2019-05-13T01:55:34.248Z,4.90
2019-05-13T01:58:04.335Z,4.95
2019-05-13T02:00:35.366Z,4.75
2019-05-13T02:03:04.506Z,4.83
2019-05-13T02:05:34.176Z,4.67
2019-05-13T02:08:04.354Z,4.80
2019-05-13T02:10:54.372Z,5.40
2019-05-13T02:13:24.700Z,4.20
2019-05-13T02:15:55.584Z,3.98
2019-05-13T02:18:24.965Z,3.98
2019-05-13T02:20:55.391Z,4.10
2019-05-13T02:23:24.547Z,3.63
2019-05-13T02:25:54.513Z,3.13
2019-05-13T02:28:25.149Z,3.27
2019-05-13T02:30:55.968Z,3.10
2019-05-13T02:33:24.770Z,3.10
2019-05-13T02:35:53.912Z,3.57
2019-05-13T02:38:28.761Z,4.10
2019-05-13T02:40:53.618Z,3.75
2019-05-13T02:43:23.715Z,3.40
2019-05-13T02:45:54.041Z,3.17
2019-05-13T02:48:24.245Z,3.92
2019-05-13T02:50:54.267Z,3.87
2019-05-13T02:53:24.341Z,2.77
2019-05-13T02:55:54.250Z,2.90
2019-05-13T02:58:25.111Z,2.37
2019-05-13T03:00:54.165Z,2.20
2019-05-13T03:03:23.730Z,2.50
2019-05-13T03:05:53.551Z,2.37
2019-05-13T03:08:39.566Z,2.62
2019-05-13T03:10:54.079Z,2.62
2019-05-13T03:13:24.081Z,2.40
2019-05-13T03:16:07.002Z,2.55
2019-05-13T03:18:35.807Z,2.30
2019-05-13T03:21:05.634Z,2.70
2019-05-13T03:23:34.194Z,2.40
2019-05-13T03:26:03.309Z,2.50
2019-05-13T03:28:33.513Z,2.17
2019-05-13T03:31:06.813Z,2.33
2019-05-13T03:33:36.687Z,2.27
2019-05-13T03:36:06.693Z,2.10
2019-05-13T03:38:53.632Z,2.15
2019-05-13T03:41:07.516Z,2.17
2019-05-13T03:43:42.837Z,2.37
2019-05-13T03:46:12.842Z,2.22
2019-05-13T03:48:43.059Z,1.95
2019-05-13T03:51:13.221Z,2.20
2019-05-13T03:53:43.391Z,3.08
2019-05-13T03:56:13.239Z,1.57
2019-05-13T03:58:43.684Z,2.52
2019-05-13T04:01:13.515Z,1.50
2019-05-13T04:03:44.060Z,1.70
2019-05-13T04:06:13.943Z,2.00
2019-05-13T04:08:44.148Z,2.58
2019-05-13T04:11:13.612Z,2.95
2019-05-13T04:13:43.060Z,3.08
2019-05-13T04:16:13.219Z,1.98
2019-05-13T04:18:43.188Z,3.25
2019-05-13T04:21:13.213Z,2.02
2019-05-13T04:23:42.771Z,1.67
2019-05-13T04:26:14.730Z,2.27
2019-05-13T04:28:43.514Z,1.85
2019-05-13T04:31:14.481Z,1.98
2019-05-13T04:33:43.380Z,2.15
2019-05-13T04:36:13.266Z,4.78
2019-05-13T04:38:44.103Z,2.67
2019-05-13T04:41:13.068Z,1.90
2019-05-13T04:43:44.506Z,1.82
2019-05-13T04:46:14.392Z,2.43
2019-05-13T04:48:44.620Z,1.82
2019-05-13T04:51:14.095Z,3.10
2019-05-13T04:53:43.527Z,2.75
2019-05-13T04:56:14.082Z,2.52
2019-05-13T04:58:43.430Z,2.83
2019-05-13T05:01:15.566Z,1.87
2019-05-13T05:03:52.784Z,1.87
2019-05-13T05:06:34.458Z,2.60
2019-05-13T05:12:02.161Z,1.95
2019-05-13T05:14:54.842Z,1.57
2019-05-13T05:17:35.163Z,1.80
2019-05-13T05:20:12.008Z,1.70
2019-05-13T05:22:57.974Z,2.87
2019-05-13T05:25:32.867Z,1.50
2019-05-13T05:28:04.597Z,2.40
2019-05-13T05:30:36.247Z,2.30
2019-05-13T05:33:33.386Z,2.15
2019-05-13T05:36:21.775Z,2.17
2019-05-13T05:39:07.993Z,1.87
2019-05-13T05:41:37.430Z,2.35
2019-05-13T05:44:08.720Z,2.55
2019-05-13T05:46:42.503Z,3.12
2019-05-13T05:51:43.120Z,2.77
2019-05-13T05:54:24.107Z,3.20
2019-05-13T05:56:55.032Z,4.92
2019-05-13T05:59:25.879Z,2.98
2019-05-13T06:01:56.925Z,2.33
2019-05-13T06:04:32.261Z,2.30
2019-05-13T06:06:59.126Z,3.02
2019-05-13T06:09:27.850Z,5.00
2019-05-13T06:11:56.598Z,5.65
2019-05-13T06:14:25.446Z,2.70
2019-05-13T06:16:54.448Z,3.10
2019-05-13T06:19:23.186Z,3.40
2019-05-13T06:21:51.950Z,4.22
2019-05-13T06:24:24.555Z,3.22
2019-05-13T06:26:52.071Z,2.75
2019-05-13T06:29:22.259Z,4.30
2019-05-13T06:31:52.000Z,3.92
2019-05-13T06:34:21.598Z,2.72
2019-05-13T06:36:52.290Z,2.27
2019-05-13T06:39:22.213Z,2.70
2019-05-13T06:41:51.808Z,3.72
2019-05-13T06:44:21.472Z,3.35
2019-05-13T06:46:51.704Z,3.58
2019-05-13T06:49:21.692Z,2.27
2019-05-13T06:51:52.706Z,2.20
2019-05-13T06:54:21.897Z,2.60
2019-05-13T06:56:51.764Z,2.42
2019-05-13T06:59:22.380Z,2.95
2019-05-13T07:01:51.464Z,3.00
2019-05-13T07:04:21.885Z,3.08
2019-05-13T07:06:56.128Z,3.20
2019-05-13T07:09:21.578Z,4.22
2019-05-13T07:11:51.900Z,3.22
2019-05-13T07:14:21.809Z,3.37
2019-05-13T07:16:52.410Z,4.75
2019-05-13T07:19:23.731Z,4.17
2019-05-13T07:21:52.076Z,5.87
2019-05-13T07:24:21.423Z,4.83
2019-05-13T07:26:52.312Z,5.80
2019-05-13T07:29:23.367Z,6.07
2019-05-13T07:31:52.331Z,5.30
2019-05-13T07:34:24.639Z,4.95
2019-05-13T07:36:52.046Z,5.40
2019-05-13T07:39:22.333Z,5.43
2019-05-13T07:41:52.041Z,4.93
2019-05-13T07:44:22.319Z,7.70
2019-05-13T07:46:52.306Z,5.00
2019-05-13T07:49:22.461Z,4.40
2019-05-13T07:51:52.125Z,4.63
2019-05-13T07:54:22.036Z,4.90
2019-05-13T07:56:52.311Z,6.13
2019-05-13T07:59:21.258Z,7.20
2019-05-13T08:01:52.140Z,7.47
2019-05-13T08:04:25.594Z,8.27
2019-05-13T08:06:52.462Z,7.60
2019-05-13T08:09:21.570Z,7.70
2019-05-13T08:12:02.225Z,8.30
2019-05-13T08:14:21.871Z,9.27
2019-05-13T08:16:51.823Z,8.53
2019-05-13T08:19:21.794Z,9.17
2019-05-13T08:21:51.455Z,10.97
2019-05-13T08:24:22.625Z,9.43
2019-05-13T08:26:53.089Z,9.13
2019-05-13T08:29:21.646Z,10.37
2019-05-13T08:31:51.880Z,12.03
2019-05-13T08:34:22.555Z,10.63
2019-05-13T08:36:51.472Z,14.50
2019-05-13T08:39:21.663Z,8.73
2019-05-13T08:41:51.582Z,10.57
2019-05-13T08:44:21.638Z,10.63
2019-05-13T08:46:51.896Z,14.07
2019-05-13T08:49:22.011Z,8.67
2019-05-13T08:51:52.764Z,8.00
2019-05-13T08:54:22.034Z,6.47
2019-05-13T08:56:52.045Z,7.07
2019-05-13T08:59:22.182Z,5.43
2019-05-13T09:01:52.379Z,5.33
2019-05-13T09:04:22.219Z,5.30
2019-05-13T09:06:52.417Z,5.87
2019-05-13T09:09:22.097Z,4.70
2019-05-13T09:11:51.555Z,5.67
2019-05-13T09:14:21.898Z,4.07
2019-05-13T09:16:52.603Z,4.67
2019-05-13T09:19:21.541Z,6.20
2019-05-13T09:21:52.612Z,4.80
2019-05-13T09:24:29.023Z,5.20
2019-05-13T09:26:52.703Z,5.60
2019-05-13T09:29:22.556Z,5.43
2019-05-13T09:31:52.119Z,5.50
2019-05-13T09:34:22.166Z,5.50
2019-05-13T09:36:51.888Z,3.43
2019-05-13T09:39:21.668Z,4.83
2019-05-13T09:41:52.158Z,5.73
2019-05-13T09:44:21.781Z,4.37
2019-05-13T09:46:51.783Z,4.10
2019-05-13T09:49:23.559Z,4.70
2019-05-13T09:51:52.334Z,4.50
2019-05-13T09:54:22.236Z,4.63
2019-05-13T09:56:51.839Z,4.53
2019-05-13T09:59:22.170Z,4.63
2019-05-13T10:01:51.898Z,6.00
2019-05-13T10:04:22.297Z,5.10
2019-05-13T10:06:51.274Z,3.60
2019-05-13T10:09:21.743Z,4.50
2019-05-13T10:11:51.971Z,5.40
2019-05-13T10:14:22.862Z,4.53
2019-05-13T10:16:51.500Z,5.63
2019-05-13T10:19:21.453Z,7.00
2019-05-13T10:21:52.463Z,5.83
2019-05-13T10:24:22.167Z,7.27
2019-05-13T10:26:51.925Z,6.03
2019-05-13T10:29:22.360Z,8.20
2019-05-13T10:31:52.626Z,13.47
2019-05-13T10:34:22.548Z,6.50
2019-05-13T10:36:51.791Z,6.37
2019-05-13T10:39:22.329Z,5.63
2019-05-13T10:41:52.337Z,5.00
2019-05-13T10:44:21.325Z,8.23
2019-05-13T10:46:52.285Z,7.83
2019-05-13T10:49:22.283Z,4.97
2019-05-13T10:51:52.589Z,6.00
2019-05-13T10:54:22.039Z,5.30
2019-05-13T10:56:53.117Z,5.87
2019-05-13T10:59:23.003Z,5.17
2019-05-13T11:01:51.134Z,6.00
2019-05-13T11:04:22.230Z,8.20
2019-05-13T11:06:52.511Z,6.40
2019-05-13T11:09:21.775Z,6.50
2019-05-13T11:11:52.742Z,5.50
2019-05-13T11:14:21.940Z,5.93
2019-05-13T11:16:52.378Z,6.33
2019-05-13T11:19:23.191Z,6.30
2019-05-13T11:21:52.270Z,6.63
2019-05-13T11:24:22.640Z,7.00
2019-05-13T11:26:53.185Z,5.73
2019-05-13T11:29:22.968Z,6.23
2019-05-13T11:31:52.699Z,6.37
2019-05-13T11:34:22.384Z,7.93
2019-05-13T11:36:53.305Z,10.07
2019-05-13T11:39:22.285Z,7.77
2019-05-13T11:41:51.129Z,6.57
2019-05-13T11:44:22.467Z,7.87
2019-05-13T11:46:52.925Z,6.57
2019-05-13T11:49:20.683Z,9.63
2019-05-13T11:51:51.744Z,8.40
2019-05-13T11:54:22.385Z,11.53
2019-05-13T11:57:00.845Z,9.33
2019-05-13T11:59:22.057Z,6.60
2019-05-13T12:01:53.867Z,8.13
2019-05-13T12:04:24.066Z,7.73
2019-05-13T12:06:54.641Z,8.67
2019-05-13T12:09:22.363Z,7.33
2019-05-13T12:11:51.331Z,5.53
2019-05-13T12:16:50.577Z,6.40
2019-05-13T12:19:21.398Z,6.10
2019-05-13T12:21:53.651Z,7.37
2019-05-13T12:24:22.716Z,7.97
2019-05-13T12:26:53.172Z,6.70
2019-05-13T12:29:20.582Z,5.90
2019-05-13T12:31:52.320Z,3.80
2019-05-13T12:34:22.119Z,6.33
2019-05-13T12:36:49.691Z,10.27
2019-05-13T12:39:18.360Z,6.60
2019-05-13T12:41:47.050Z,6.00
2019-05-13T12:44:15.858Z,5.37
2019-05-13T12:46:50.184Z,5.63
2019-05-13T12:49:14.898Z,6.97
2019-05-13T12:51:44.060Z,4.83
2019-05-13T12:54:13.942Z,4.03
2019-05-13T12:56:42.975Z,6.70
2019-05-13T12:59:13.198Z,4.30
2019-05-13T13:01:42.086Z,4.00
2019-05-13T13:04:12.684Z,4.67
2019-05-13T13:06:45.129Z,4.33
2019-05-13T13:09:12.765Z,4.37
2019-05-13T13:11:43.984Z,5.87
2019-05-13T13:14:15.477Z,5.03
2019-05-13T13:16:43.491Z,4.93
2019-05-13T13:19:14.695Z,4.33
2019-05-13T13:21:42.495Z,7.83
2019-05-13T13:24:12.431Z,4.37
2019-05-13T13:26:42.849Z,8.87
2019-05-13T13:29:11.539Z,4.93
2019-05-13T13:31:43.293Z,7.77
2019-05-13T13:34:16.483Z,8.73
2019-05-13T13:36:45.976Z,7.53
2019-05-13T13:39:14.867Z,5.60
2019-05-13T13:41:43.737Z,5.17
2019-05-13T13:44:12.913Z,4.50
2019-05-13T13:46:44.519Z,4.70
2019-05-13T13:49:13.086Z,3.80
2019-05-13T13:51:44.488Z,2.87
2019-05-13T13:54:12.687Z,3.50
2019-05-13T13:56:43.830Z,3.23
2019-05-13T13:59:13.711Z,3.50
2019-05-13T14:01:41.971Z,4.07
2019-05-13T14:04:15.898Z,3.83
2019-05-13T14:09:12.046Z,5.63
2019-05-13T14:11:42.026Z,5.27
2019-05-13T14:14:12.424Z,4.00
2019-05-13T14:16:42.740Z,3.47
2019-05-13T14:19:11.754Z,3.77
2019-05-13T14:21:41.617Z,2.97
2019-05-13T14:24:12.104Z,3.47
2019-05-13T14:26:43.368Z,3.20
2019-05-13T14:29:12.371Z,3.70
2019-05-13T14:31:41.615Z,4.60
2019-05-13T14:34:11.496Z,4.60
2019-05-13T14:36:40.343Z,4.07
2019-05-13T14:39:11.853Z,2.80
2019-05-13T14:41:39.782Z,3.77
2019-05-13T14:44:08.361Z,3.37
2019-05-13T14:46:47.152Z,3.20
2019-05-13T14:49:07.795Z,2.60
2019-05-13T14:51:36.386Z,3.43
2019-05-13T14:54:05.145Z,3.60
2019-05-13T14:56:33.771Z,3.10
2019-05-13T14:59:02.785Z,4.10
2019-05-13T15:01:32.247Z,3.53
2019-05-13T15:04:02.859Z,3.07
2019-05-13T15:06:32.665Z,3.50
2019-05-13T15:09:01.887Z,4.53
2019-05-13T15:11:32.398Z,5.30
2019-05-13T15:14:02.398Z,3.50
2019-05-13T15:16:31.864Z,3.50
2019-05-13T15:19:01.566Z,3.20
2019-05-13T15:21:32.098Z,4.50
2019-05-13T15:24:02.231Z,3.17
2019-05-13T15:26:31.470Z,2.93
2019-05-13T15:29:04.714Z,3.03
2019-05-13T15:31:31.621Z,3.77
2019-05-13T15:34:02.494Z,3.50
2019-05-13T15:36:31.627Z,3.67
2019-05-13T15:39:01.467Z,4.60
2019-05-13T15:41:30.288Z,5.40
2019-05-13T15:43:59.350Z,4.97
2019-05-13T15:46:28.013Z,6.17
2019-05-13T15:48:56.600Z,5.97
2019-05-13T15:51:25.258Z,6.73
2019-05-13T15:53:57.049Z,3.97
2019-05-13T15:56:24.239Z,7.60
2019-05-13T15:58:53.443Z,3.97
2019-05-13T16:01:23.042Z,3.47
2019-05-13T16:03:52.404Z,3.70
2019-05-13T16:06:21.576Z,3.97
2019-05-13T16:08:51.892Z,10.53
2019-05-13T16:11:21.947Z,9.73
2019-05-13T16:13:51.883Z,8.53
2019-05-13T16:16:21.928Z,11.33
2019-05-13T16:18:51.732Z,9.20
2019-05-13T16:21:21.049Z,6.90
2019-05-13T16:23:51.480Z,5.43
2019-05-13T16:26:22.502Z,12.77
2019-05-13T16:28:52.219Z,7.93
2019-05-13T16:31:21.118Z,4.77
2019-05-13T16:33:52.065Z,4.67
2019-05-13T16:36:22.099Z,3.87
2019-05-13T16:38:50.262Z,4.07
2019-05-13T16:41:19.122Z,3.90
2019-05-13T16:43:47.708Z,3.70
2019-05-13T16:46:16.374Z,4.17
2019-05-13T16:48:45.259Z,6.03
2019-05-13T16:51:14.031Z,3.77
2019-05-13T16:53:42.669Z,3.97
2019-05-13T16:56:25.803Z,4.43
2019-05-13T16:58:42.147Z,3.50
2019-05-13T17:01:11.891Z,3.10
2019-05-13T17:03:41.437Z,3.10
2019-05-13T17:06:12.709Z,5.70
2019-05-13T17:08:42.464Z,3.33
2019-05-13T17:11:13.275Z,3.10
2019-05-13T17:13:42.518Z,3.97
2019-05-13T17:16:11.385Z,3.23
2019-05-13T17:18:41.656Z,2.70
2019-05-13T17:21:10.338Z,2.97
2019-05-13T17:23:41.631Z,2.37
2019-05-13T17:26:11.469Z,2.70
2019-05-13T17:28:41.659Z,2.87
2019-05-13T17:31:11.577Z,3.97
2019-05-13T17:33:40.275Z,4.00
2019-05-13T17:36:08.914Z,3.20
2019-05-13T17:38:37.672Z,4.27
2019-05-13T17:41:06.352Z,5.97
2019-05-13T17:43:35.346Z,3.97
2019-05-13T17:46:04.043Z,5.03
2019-05-13T17:48:33.232Z,4.83
2019-05-13T17:51:02.247Z,3.77
2019-05-13T17:53:32.518Z,3.57
2019-05-13T17:56:02.487Z,7.23
2019-05-13T17:58:31.536Z,5.33
2019-05-13T18:01:01.677Z,3.63
2019-05-13T18:03:32.048Z,5.17
2019-05-13T18:06:02.414Z,3.03
2019-05-13T18:08:32.019Z,2.73
2019-05-13T18:11:02.535Z,2.70
2019-05-13T18:13:33.743Z,2.80
2019-05-13T18:16:02.855Z,3.10
2019-05-13T18:18:43.122Z,3.07
2019-05-13T18:21:02.438Z,2.53
2019-05-13T18:23:31.099Z,2.53
2019-05-13T18:26:01.964Z,3.03
2019-05-13T18:28:31.502Z,2.47
2019-05-13T18:31:02.393Z,2.50
2019-05-13T18:33:31.999Z,2.90
2019-05-13T18:36:01.994Z,2.30
2019-05-13T18:38:31.284Z,2.70
2019-05-13T18:41:01.774Z,2.63
2019-05-13T18:43:32.118Z,2.00
2019-05-13T18:46:02.050Z,2.97
2019-05-13T18:48:32.244Z,2.70
2019-05-13T18:51:01.487Z,5.83
2019-05-13T18:53:32.148Z,2.30
2019-05-13T18:56:01.948Z,2.60
2019-05-13T18:58:31.689Z,2.57
2019-05-13T19:01:01.313Z,2.50
2019-05-13T19:03:32.345Z,3.13
2019-05-13T19:06:01.223Z,2.93
2019-05-13T19:08:31.857Z,2.30
2019-05-13T19:11:01.164Z,2.40
2019-05-13T19:13:32.484Z,2.87
2019-05-13T19:16:02.392Z,2.87
2019-05-13T19:18:32.000Z,2.30
2019-05-13T19:21:01.892Z,2.40
2019-05-13T19:23:31.507Z,3.07
2019-05-13T19:26:01.904Z,3.10
2019-05-13T19:28:31.722Z,3.03
2019-05-13T19:31:02.328Z,4.57
2019-05-13T19:33:31.323Z,3.20
2019-05-13T19:36:01.445Z,2.20
2019-05-13T19:38:31.853Z,2.73
2019-05-13T19:41:01.866Z,2.60
2019-05-13T19:43:31.536Z,2.77
2019-05-13T19:46:01.535Z,3.07
2019-05-13T19:48:32.697Z,3.00
2019-05-13T19:51:01.618Z,4.13
2019-05-13T19:53:31.898Z,3.30
2019-05-13T19:56:01.458Z,4.03
2019-05-13T19:58:32.429Z,3.30
2019-05-13T20:01:01.133Z,3.00
2019-05-13T20:03:31.735Z,2.90
2019-05-13T20:06:02.228Z,3.27
2019-05-13T20:08:32.077Z,3.80
2019-05-13T20:11:02.049Z,3.47
2019-05-13T20:13:31.160Z,3.47
2019-05-13T20:16:01.415Z,3.90
2019-05-13T20:18:32.016Z,3.00
2019-05-13T20:21:01.409Z,2.83
2019-05-13T20:23:32.022Z,3.00
2019-05-13T20:26:00.402Z,3.10
2019-05-13T20:28:31.459Z,3.07
2019-05-13T20:31:01.633Z,2.97
2019-05-13T20:33:31.973Z,4.80
2019-05-13T20:36:01.540Z,2.50
2019-05-13T20:38:31.739Z,2.57
2019-05-13T20:41:01.319Z,2.70
2019-05-13T20:43:32.764Z,2.83
2019-05-13T20:46:01.958Z,2.53
2019-05-13T20:48:32.030Z,2.67
2019-05-13T20:51:02.502Z,3.27
2019-05-13T20:53:31.517Z,6.07
2019-05-13T20:56:01.732Z,2.90
2019-05-13T20:58:31.853Z,2.50
2019-05-13T21:01:02.436Z,2.77
2019-05-13T21:03:31.746Z,2.57
2019-05-13T21:06:00.602Z,2.90
2019-05-13T21:08:29.153Z,2.87
2019-05-13T21:10:57.732Z,3.23
2019-05-13T21:13:26.300Z,2.90
2019-05-13T21:15:54.958Z,2.67
2019-05-13T21:18:23.517Z,2.63
2019-05-13T21:20:52.187Z,2.63
2019-05-13T21:23:21.753Z,2.33
2019-05-13T21:25:51.085Z,3.00
2019-05-13T21:28:21.951Z,2.40
2019-05-13T21:30:51.440Z,2.30
2019-05-13T21:33:22.191Z,2.70
2019-05-13T21:35:51.124Z,2.90
2019-05-13T21:38:22.206Z,2.57
2019-05-13T21:40:52.210Z,2.77
2019-05-13T21:43:21.560Z,2.87
2019-05-13T21:45:52.249Z,3.37
2019-05-13T21:48:22.739Z,2.53
2019-05-13T21:50:51.753Z,2.53
2019-05-13T21:53:21.732Z,2.80
2019-05-13T21:55:52.019Z,2.93
2019-05-13T21:58:22.329Z,2.73
2019-05-13T22:00:53.362Z,2.93
2019-05-13T22:03:22.218Z,2.60
2019-05-13T22:05:51.529Z,2.47
2019-05-13T22:08:21.649Z,2.47
2019-05-13T22:10:52.408Z,2.23
2019-05-13T22:13:21.258Z,2.53
2019-05-13T22:15:52.172Z,2.20
2019-05-13T22:18:20.775Z,2.23
2019-05-13T22:20:51.177Z,2.57
2019-05-13T22:23:19.710Z,2.33
2019-05-13T22:25:48.438Z,2.40
2019-05-13T22:28:16.995Z,2.27
2019-05-13T22:30:45.731Z,2.20
2019-05-13T22:33:14.418Z,2.37
2019-05-13T22:35:43.069Z,2.90
2019-05-13T22:38:12.405Z,2.50
2019-05-13T22:40:42.019Z,2.30
2019-05-13T22:43:12.733Z,2.87
2019-05-13T22:45:41.873Z,2.50
2019-05-13T22:48:14.573Z,2.67
2019-05-13T22:50:42.675Z,2.23
2019-05-13T22:53:12.016Z,2.33
2019-05-13T22:55:41.834Z,2.00
2019-05-13T22:58:11.077Z,2.33
2019-05-13T23:00:42.178Z,2.27
2019-05-13T23:03:09.975Z,2.30
2019-05-13T23:05:38.707Z,2.20
2019-05-13T23:08:07.291Z,2.27
2019-05-13T23:10:35.950Z,1.90
2019-05-13T23:13:04.610Z,2.37
2019-05-13T23:15:33.174Z,2.37
2019-05-13T23:18:01.810Z,2.13
2019-05-13T23:20:31.811Z,2.00
2019-05-13T23:23:01.276Z,1.97
2019-05-13T23:25:32.021Z,2.63
2019-05-13T23:28:00.610Z,2.13
2019-05-13T23:30:31.267Z,2.50
2019-05-13T23:33:02.074Z,2.63
2019-05-13T23:35:32.082Z,2.20
2019-05-13T23:38:01.587Z,3.00
2019-05-13T23:40:31.609Z,1.87
2019-05-13T23:43:02.063Z,2.40
2019-05-13T23:45:31.173Z,1.70
2019-05-13T23:48:01.650Z,2.90
2019-05-13T23:50:32.095Z,2.30
2019-05-13T23:53:00.486Z,2.30
2019-05-13T23:55:29.094Z,2.57
2019-05-13T23:57:57.729Z,1.87
